1918 NOT_NAMED (1918210N20119)


IBTrACS version v04r00. Visit IBTrACS website for data access.
Please direct all questions to the IBTrACS Q and A forum

Storm track - Intensity - Wind Radii - Intensity Data - Source Data - All data

Summary Information

Storm ID 1918210N20119
Start Jul 28 22Z
Landfall Jul 30 22Z
End Jul 30 22Z
ATCF IDs
Track status Best track data.

Storm track plot

Map of storm track

Intensity plots

No Intensity information for this storm


Radial wind information

No radial wind information for this storm


Position and Intensity Table

BASIN ISO_TIME_________ NATURE LAT LON
degrees north degrees east
WP 1918-07-28 22:00:00 NR 20.30 119.00
WP 1918-07-29 00:00:00 NR 20.42 118.92
WP 03:00:00 NR 20.59 118.80
WP 06:00:00 NR 20.77 118.68
WP 09:00:00 NR 20.94 118.55
WP 10:00:00 NR 21.00 118.50
WP 12:00:00 NR 21.11 118.40
WP 15:00:00 NR 21.29 118.25
WP 18:00:00 NR 21.46 118.10
WP 21:00:00 NR 21.64 117.95
WP 22:00:00 NR 21.70 117.90
WP 1918-07-30 00:00:00 NR 21.82 117.81
WP 03:00:00 NR 22.02 117.69
WP 06:00:00 NR 22.22 117.57
WP 09:00:00 NR 22.43 117.44
WP 10:00:00 NR 22.50 117.40
WP 12:00:00 NR 22.64 117.31
WP 15:00:00 NR 22.87 117.16
WP 18:00:00 NR 23.09 117.01
WP 21:00:00 NR 23.32 116.85
WP 22:00:00 NR 23.40 116.80

Source Information

Agency Information
USA
TOKYO
CMA
HKO
NEWDELHI
REUNION
BOM
NADI
WELLINGTON
DS824
TD9636 cons_worldwide_trop_cyclone_18710101-19891231-003:Line=5734
TD9635
NEUMANN
MLC

All available IBTrACS Data

SEASON BASIN SUBBASIN ISO_TIME_________ NATURE LAT LON DIST2LAND LANDFALL IFLAG USA SSHS TD9636 LAT TD9636 LON TD9636 STAGE STORM SPEED STORM DIR
Year degrees north degrees east km km 1 degrees north degrees east kts degrees
1918 WP MM 1918-07-28 22:00:00 NR 20.30 119.00 251 243 __________O___ -1 20.30 119.00 4 4 329
1918 WP MM 1918-07-29 00:00:00 NR 20.42 118.92 250 243 __________P___ -1 20.42 118.92 4 4 328
1918 WP MM 03:00:00 NR 20.59 118.80 244 238 __________P___ -1 20.59 118.80 4 4 327
1918 WP MM 06:00:00 NR 20.77 118.68 240 240 __________P___ -1 20.77 118.68 4 4 325
1918 WP MM 09:00:00 NR 20.94 118.55 253 248 __________P___ -1 20.94 118.55 4 4 324
1918 WP MM 10:00:00 NR 21.00 118.50 248 242 __________O___ -1 21.00 118.50 4 4 322
1918 WP MM 12:00:00 NR 21.11 118.40 250 244 __________P___ -1 21.11 118.40 4 4 321
1918 WP MM 15:00:00 NR 21.29 118.25 246 227 __________P___ -1 21.29 118.25 4 4 320
1918 WP MM 18:00:00 NR 21.46 118.10 227 204 __________P___ -1 21.46 118.10 4 5 321
1918 WP MM 21:00:00 NR 21.64 117.95 204 196 __________P___ -1 21.64 117.95 4 5 323
1918 WP MM 22:00:00 NR 21.70 117.90 196 181 __________O___ -1 21.70 117.90 4 5 326
1918 WP MM 1918-07-30 00:00:00 NR 21.82 117.81 181 159 __________P___ -1 21.82 117.81 4 5 329
1918 WP MM 03:00:00 NR 22.02 117.69 159 137 __________P___ -1 22.02 117.69 4 5 330
1918 WP MM 06:00:00 NR 22.22 117.57 137 107 __________P___ -1 22.22 117.57 4 5 331
1918 WP MM 09:00:00 NR 22.43 117.44 107 102 __________P___ -1 22.43 117.44 4 5 331
1918 WP MM 10:00:00 NR 22.50 117.40 102 88 __________O___ -1 22.50 117.40 4 5 330
1918 WP MM 12:00:00 NR 22.64 117.31 88 60 __________P___ -1 22.64 117.31 4 5 330
1918 WP MM 15:00:00 NR 22.87 117.16 60 30 __________P___ -1 22.87 117.16 4 5 329
1918 WP MM 18:00:00 NR 23.09 117.01 30 10 __________P___ -1 23.09 117.01 4 5 328
1918 WP MM 21:00:00 NR 23.32 116.85 10 0 __________P___ -1 23.32 116.85 4 5 327
1918 WP MM 22:00:00 NR 23.40 116.80 0 __________O___ -1 23.40 116.80 4 5 322